createdAt,value
2022-11-18T00:01:09.683Z,6.07
2022-11-18T00:03:37.526Z,5.63
2022-11-18T00:06:04.785Z,5.60
2022-11-18T00:08:32.009Z,5.93
2022-11-18T00:10:59.175Z,5.63
2022-11-18T00:13:44.931Z,6.20
2022-11-18T00:16:12.847Z,6.10
2022-11-18T00:18:40.258Z,6.07
2022-11-18T00:21:10.903Z,6.27
2022-11-18T00:23:38.252Z,6.43
2022-11-18T00:26:05.369Z,6.70
2022-11-18T00:28:32.755Z,6.43
2022-11-18T00:31:10.148Z,6.37
2022-11-18T00:33:37.577Z,6.17
2022-11-18T00:36:05.676Z,6.10
2022-11-18T00:38:33.144Z,6.63
2022-11-18T00:41:01.306Z,6.37
2022-11-18T00:43:28.351Z,6.20
2022-11-18T00:45:55.408Z,6.67
2022-11-18T00:48:22.634Z,6.53
2022-11-18T00:50:50.543Z,6.67
2022-11-18T00:53:18.531Z,6.03
2022-11-18T00:55:45.689Z,6.03
2022-11-18T00:58:14.342Z,6.37
2022-11-18T01:00:42.071Z,6.90
2022-11-18T01:03:09.494Z,6.03
2022-11-18T01:05:36.680Z,6.33
2022-11-18T01:08:03.776Z,6.37
2022-11-18T01:10:30.888Z,6.03
2022-11-18T01:13:16.865Z,6.53
2022-11-18T01:15:44.841Z,6.53
2022-11-18T01:18:11.937Z,5.67
2022-11-18T01:20:39.002Z,6.43
2022-11-18T01:23:06.060Z,6.47
2022-11-18T01:25:33.208Z,6.33
2022-11-18T01:28:00.253Z,6.10
2022-11-18T01:30:27.324Z,6.20
2022-11-18T01:32:54.485Z,6.50
2022-11-18T01:35:21.535Z,6.10
2022-11-18T01:37:48.570Z,6.20
2022-11-18T01:40:15.803Z,6.37
2022-11-18T01:42:42.858Z,6.70
2022-11-18T01:45:22.025Z,6.50
2022-11-18T01:47:52.749Z,6.60
2022-11-18T01:50:20.892Z,6.20
2022-11-18T01:52:51.648Z,6.17
2022-11-18T01:55:23.685Z,5.93
2022-11-18T01:57:52.439Z,6.37
2022-11-18T02:00:19.521Z,6.07
2022-11-18T02:02:46.732Z,5.83
2022-11-18T02:05:14.169Z,6.47
2022-11-18T02:07:43.312Z,6.17
2022-11-18T02:10:11.034Z,6.33
2022-11-18T02:12:38.258Z,6.00
2022-11-18T02:15:05.616Z,6.30
2022-11-18T02:17:41.546Z,5.47
2022-11-18T02:20:29.407Z,5.97
2022-11-18T02:23:14.895Z,6.90
2022-11-18T02:25:54.742Z,6.03
2022-11-18T02:28:21.752Z,6.37
2022-11-18T02:30:48.825Z,5.87
2022-11-18T02:33:36.105Z,6.53
2022-11-18T02:36:08.636Z,5.43
2022-11-18T02:38:38.197Z,5.67
2022-11-18T02:41:08.576Z,5.90
2022-11-18T02:43:41.139Z,6.03
2022-11-18T02:46:10.321Z,5.17
2022-11-18T02:48:45.593Z,5.73
2022-11-18T02:51:13.344Z,5.57
2022-11-18T02:53:41.305Z,5.77
2022-11-18T02:56:09.859Z,6.10
2022-11-18T02:58:36.906Z,6.07
2022-11-18T03:01:03.987Z,6.07
2022-11-18T03:03:32.795Z,5.77
2022-11-18T03:06:08.799Z,5.97
2022-11-18T03:08:39.113Z,5.67
2022-11-18T03:11:11.871Z,5.40
2022-11-18T03:14:08.308Z,5.60
2022-11-18T03:16:46.533Z,5.57
2022-11-18T03:19:16.626Z,5.50
2022-11-18T03:21:46.351Z,5.30
2022-11-18T03:24:16.397Z,5.80
2022-11-18T03:26:46.620Z,5.00
2022-11-18T03:29:22.189Z,5.07
2022-11-18T03:31:55.400Z,5.33
2022-11-18T03:34:28.485Z,6.20
2022-11-18T03:37:00.649Z,5.50
2022-11-18T03:39:29.597Z,5.50
2022-11-18T03:42:01.681Z,4.97
2022-11-18T03:44:31.261Z,5.30
2022-11-18T03:47:09.701Z,5.40
2022-11-18T03:49:40.325Z,5.53
2022-11-18T03:52:10.822Z,5.30
2022-11-18T03:54:39.303Z,5.53
2022-11-18T03:57:14.568Z,5.30
2022-11-18T03:59:44.648Z,5.07
2022-11-18T04:02:13.314Z,5.90
2022-11-18T04:04:40.757Z,6.40
2022-11-18T04:07:07.859Z,5.57
2022-11-18T04:09:38.440Z,5.77
2022-11-18T04:12:08.196Z,6.07
2022-11-18T04:14:37.174Z,6.23
2022-11-18T04:17:17.978Z,6.27
2022-11-18T04:19:45.064Z,5.97
2022-11-18T04:22:12.391Z,6.47
2022-11-18T04:24:39.700Z,6.67
2022-11-18T04:27:07.056Z,6.07
2022-11-18T04:29:34.692Z,6.80
2022-11-18T04:32:02.281Z,6.90
2022-11-18T04:34:29.380Z,7.17
2022-11-18T04:36:56.451Z,7.03
2022-11-18T04:39:23.544Z,6.93
2022-11-18T04:41:56.958Z,7.30
2022-11-18T04:44:24.053Z,7.67
2022-11-18T04:46:51.109Z,6.40
2022-11-18T04:49:18.485Z,6.73
2022-11-18T04:51:46.036Z,6.67
2022-11-18T04:54:13.417Z,7.07
2022-11-18T04:56:44.284Z,6.73
2022-11-18T04:59:13.505Z,6.33
2022-11-18T05:01:40.879Z,6.77
2022-11-18T05:04:08.357Z,7.27
2022-11-18T05:06:35.709Z,6.83
2022-11-18T05:09:02.837Z,6.50
2022-11-18T05:11:48.903Z,7.47
2022-11-18T05:14:16.049Z,7.43
2022-11-18T05:16:43.166Z,6.70
2022-11-18T05:19:10.275Z,7.97
2022-11-18T05:21:37.906Z,6.83
2022-11-18T05:24:05.388Z,7.17
2022-11-18T05:26:32.578Z,7.03
2022-11-18T05:28:59.690Z,7.03
2022-11-18T05:31:26.914Z,6.67
2022-11-18T05:33:54.156Z,6.53
2022-11-18T05:36:21.665Z,7.17
2022-11-18T05:38:49.301Z,6.40
2022-11-18T05:41:35.640Z,7.23
2022-11-18T05:44:03.353Z,6.73
2022-11-18T05:46:30.761Z,6.33
2022-11-18T05:48:57.952Z,6.67
2022-11-18T05:51:25.038Z,6.20
2022-11-18T05:53:53.013Z,6.63
2022-11-18T05:56:22.597Z,6.47
2022-11-18T05:58:49.660Z,6.30
2022-11-18T06:01:20.469Z,6.17
2022-11-18T06:03:47.844Z,6.53
2022-11-18T06:06:17.731Z,6.63
2022-11-18T06:08:47.553Z,6.27
2022-11-18T06:11:16.821Z,6.07
2022-11-18T06:13:50.413Z,6.30
2022-11-18T06:16:19.175Z,6.87
2022-11-18T06:18:46.360Z,6.00
2022-11-18T06:21:13.405Z,6.40
2022-11-18T06:23:41.968Z,6.20
2022-11-18T06:26:09.711Z,5.97
2022-11-18T06:28:37.371Z,6.07
2022-11-18T06:31:04.434Z,5.50
2022-11-18T06:33:31.523Z,5.50
2022-11-18T06:35:58.597Z,5.40
2022-11-18T06:38:25.854Z,5.77
2022-11-18T06:40:53.012Z,6.03
2022-11-18T06:43:38.894Z,6.30
2022-11-18T06:46:26.183Z,6.03
2022-11-18T06:48:53.279Z,5.77
2022-11-18T06:51:20.394Z,6.20
2022-11-18T06:53:47.552Z,6.30
2022-11-18T06:56:16.079Z,5.73
2022-11-18T06:58:43.235Z,6.50
2022-11-18T07:01:13.481Z,6.10
2022-11-18T07:03:44.305Z,6.17
2022-11-18T07:06:12.143Z,5.70
2022-11-18T07:08:40.209Z,5.37
2022-11-18T07:11:08.904Z,5.60
2022-11-18T07:13:40.647Z,5.30
2022-11-18T07:16:11.812Z,5.20
2022-11-18T07:18:39.612Z,5.20
2022-11-18T07:21:07.775Z,5.70
2022-11-18T07:23:35.346Z,5.37
2022-11-18T07:26:02.733Z,5.13
2022-11-18T07:28:30.122Z,5.73
2022-11-18T07:31:04.506Z,5.23
2022-11-18T07:33:32.034Z,5.03
2022-11-18T07:36:06.257Z,5.50
2022-11-18T07:38:33.352Z,4.53
2022-11-18T07:41:10.665Z,4.77
2022-11-18T07:43:38.204Z,5.43
2022-11-18T07:46:17.270Z,5.33
2022-11-18T07:48:45.203Z,4.93
2022-11-18T07:51:12.913Z,5.17
2022-11-18T07:53:40.016Z,4.97
2022-11-18T07:56:07.836Z,4.33
2022-11-18T07:58:35.320Z,5.10
2022-11-18T08:01:14.550Z,5.57
2022-11-18T08:03:42.692Z,4.50
2022-11-18T08:06:10.473Z,4.23
2022-11-18T08:08:37.630Z,4.73
2022-11-18T08:11:08.808Z,4.40
2022-11-18T08:13:37.497Z,4.50
2022-11-18T08:16:05.340Z,4.77
2022-11-18T08:18:33.052Z,5.60
2022-11-18T08:21:06.364Z,4.93
2022-11-18T08:23:38.907Z,4.83
2022-11-18T08:26:10.375Z,5.33
2022-11-18T08:28:37.771Z,5.17
2022-11-18T08:31:15.711Z,5.53
2022-11-18T08:33:42.905Z,5.33
2022-11-18T08:36:17.209Z,5.23
2022-11-18T08:38:44.871Z,4.33
2022-11-18T08:41:13.664Z,5.30
2022-11-18T08:43:40.767Z,5.33
2022-11-18T08:46:07.855Z,5.90
2022-11-18T08:48:34.893Z,5.97
2022-11-18T08:51:02.532Z,5.80
2022-11-18T08:53:29.861Z,6.27
2022-11-18T08:55:57.765Z,7.43
2022-11-18T08:58:25.158Z,6.30
2022-11-18T09:00:52.536Z,6.03
2022-11-18T09:03:19.877Z,6.37
2022-11-18T09:05:47.128Z,7.20
2022-11-18T09:08:15.267Z,6.40
2022-11-18T09:10:42.375Z,6.33
2022-11-18T09:13:38.601Z,7.23
2022-11-18T09:15:58.776Z,6.93
2022-11-18T09:18:26.414Z,6.93
2022-11-18T09:20:57.577Z,6.40
2022-11-18T09:23:24.666Z,6.93
2022-11-18T09:26:21.243Z,6.33
2022-11-18T09:28:48.315Z,6.37
2022-11-18T09:31:16.826Z,6.63
2022-11-18T09:33:44.159Z,6.57
2022-11-18T09:36:18.869Z,6.57
2022-11-18T09:38:51.461Z,7.47
2022-11-18T09:41:38.788Z,6.80
2022-11-18T09:44:11.836Z,7.00
2022-11-18T09:46:44.852Z,7.57
2022-11-18T09:49:15.334Z,8.30
2022-11-18T09:51:44.616Z,8.10
2022-11-18T09:54:13.533Z,7.20
2022-11-18T09:56:41.678Z,7.13
2022-11-18T09:59:11.360Z,7.33
2022-11-18T10:01:38.524Z,6.70
2022-11-18T10:04:05.637Z,7.47
2022-11-18T10:06:36.402Z,7.37
2022-11-18T10:09:05.498Z,8.03
2022-11-18T10:11:51.775Z,8.50
2022-11-18T10:14:31.582Z,7.13
2022-11-18T10:17:02.243Z,7.50
2022-11-18T10:19:40.897Z,7.73
2022-11-18T10:22:24.255Z,6.87
2022-11-18T10:24:55.627Z,7.63
2022-11-18T10:27:23.343Z,6.40
2022-11-18T10:29:54.702Z,6.50
2022-11-18T10:32:22.149Z,6.50
2022-11-18T10:34:56.542Z,6.77
2022-11-18T10:38:06.420Z,6.90
2022-11-18T10:40:27.788Z,5.80
2022-11-18T10:42:55.117Z,5.30
2022-11-18T10:45:22.207Z,5.60
2022-11-18T10:48:07.598Z,5.60
2022-11-18T10:50:34.787Z,4.83
2022-11-18T10:53:02.291Z,4.80
2022-11-18T10:55:29.803Z,4.73
2022-11-18T10:57:58.997Z,5.00
2022-11-18T11:00:42.681Z,4.50
2022-11-18T11:03:32.836Z,4.93
2022-11-18T11:06:18.826Z,4.87
2022-11-18T11:08:56.401Z,5.33
2022-11-18T11:11:31.520Z,5.30
2022-11-18T11:14:02.947Z,5.77
2022-11-18T11:16:31.121Z,5.67
2022-11-18T11:19:00.525Z,5.53
2022-11-18T11:21:30.480Z,6.10
2022-11-18T11:23:57.682Z,6.30
2022-11-18T11:29:39.629Z,7.10
2022-11-18T11:32:15.615Z,6.47
2022-11-18T11:34:45.545Z,5.53
2022-11-18T11:37:15.425Z,5.67
2022-11-18T11:39:54.311Z,6.33
2022-11-18T11:42:40.571Z,6.73
2022-11-18T11:45:26.109Z,7.00
2022-11-18T11:47:56.869Z,6.50
2022-11-18T11:50:28.580Z,6.13
2022-11-18T11:53:05.262Z,6.67
2022-11-18T11:55:46.812Z,7.77
2022-11-18T11:58:13.872Z,7.37
2022-11-18T12:00:42.789Z,7.83
2022-11-18T12:03:09.877Z,8.73
2022-11-18T12:05:39.261Z,8.23
2022-11-18T12:08:15.513Z,8.00
2022-11-18T12:10:48.371Z,8.37
2022-11-18T12:13:22.919Z,8.93
2022-11-18T12:15:56.034Z,9.07
2022-11-18T12:18:26.818Z,8.50
2022-11-18T12:20:54.778Z,9.27
2022-11-18T12:23:25.801Z,8.53
2022-11-18T12:25:54.631Z,8.30
2022-11-18T12:28:24.619Z,7.80
2022-11-18T12:30:51.695Z,8.40
2022-11-18T12:33:19.060Z,8.23
2022-11-18T12:35:50.549Z,7.97
2022-11-18T12:38:32.045Z,8.00
2022-11-18T12:40:59.064Z,8.10
2022-11-18T12:43:44.749Z,8.43
2022-11-18T12:46:30.310Z,8.20
2022-11-18T12:48:57.655Z,7.87
2022-11-18T12:51:25.302Z,8.70
2022-11-18T12:53:53.219Z,8.97
2022-11-18T12:56:23.897Z,8.37
2022-11-18T12:58:52.192Z,8.33
2022-11-18T13:01:30.586Z,9.53
2022-11-18T13:04:17.619Z,9.67
2022-11-18T13:06:44.962Z,10.00
2022-11-18T13:09:16.725Z,9.10
2022-11-18T13:11:58.913Z,9.70
2022-11-18T13:14:48.853Z,9.53
2022-11-18T13:17:43.331Z,10.33
2022-11-18T13:20:19.195Z,9.77
2022-11-18T13:23:15.294Z,10.03
2022-11-18T13:25:45.067Z,9.13
2022-11-18T13:28:30.772Z,9.47
2022-11-18T13:31:02.486Z,9.17
2022-11-18T13:33:29.997Z,9.17
2022-11-18T13:35:57.197Z,8.73
2022-11-18T13:38:28.534Z,9.27
2022-11-18T13:41:05.178Z,9.03
2022-11-18T13:43:33.076Z,9.07
2022-11-18T13:46:05.431Z,9.27
2022-11-18T13:48:33.982Z,9.80
2022-11-18T13:51:01.659Z,9.37
2022-11-18T13:53:29.645Z,9.57
2022-11-18T13:56:07.161Z,8.67
2022-11-18T13:59:15.720Z,9.67
2022-11-18T14:01:30.613Z,8.30
2022-11-18T14:03:58.925Z,9.57
2022-11-18T14:06:33.328Z,8.47
2022-11-18T14:09:19.562Z,8.73
2022-11-18T14:11:57.701Z,9.43
2022-11-18T14:14:29.666Z,9.17
2022-11-18T14:17:03.836Z,9.07
2022-11-18T14:19:32.153Z,8.83
2022-11-18T14:22:11.585Z,9.30
2022-11-18T14:24:40.167Z,9.70
2022-11-18T14:27:26.060Z,9.33
2022-11-18T14:29:53.167Z,10.83
2022-11-18T14:32:21.491Z,10.10
2022-11-18T14:34:57.903Z,10.00
2022-11-18T14:37:25.004Z,9.83
2022-11-18T14:39:56.637Z,10.40
2022-11-18T14:42:24.408Z,10.20
2022-11-18T14:44:51.578Z,10.27
2022-11-18T14:47:28.956Z,10.10
2022-11-18T14:49:56.278Z,10.23
2022-11-18T14:52:23.339Z,9.73
2022-11-18T14:54:52.050Z,9.97
2022-11-18T14:57:19.190Z,10.97
2022-11-18T14:59:46.348Z,10.23
2022-11-18T15:02:15.198Z,9.87
2022-11-18T15:04:42.606Z,9.93
2022-11-18T15:07:23.186Z,10.53
2022-11-18T15:09:51.052Z,9.80
2022-11-18T15:12:18.169Z,10.00
2022-11-18T15:14:45.224Z,9.50
2022-11-18T15:17:13.527Z,10.60
2022-11-18T15:19:43.568Z,10.20
2022-11-18T15:22:10.670Z,9.80
2022-11-18T15:24:37.843Z,10.60
2022-11-18T15:27:05.586Z,9.13
2022-11-18T15:29:32.895Z,10.37
2022-11-18T15:32:00.090Z,10.40
2022-11-18T15:34:27.260Z,9.73
2022-11-18T15:36:54.306Z,10.43
2022-11-18T15:39:21.389Z,10.50
2022-11-18T15:41:48.445Z,9.83
2022-11-18T15:44:16.151Z,10.33
2022-11-18T15:46:45.385Z,10.23
2022-11-18T15:49:14.081Z,11.77
2022-11-18T15:51:41.505Z,9.97
2022-11-18T15:54:08.635Z,10.70
2022-11-18T15:56:35.884Z,11.67
2022-11-18T15:59:04.332Z,10.03
2022-11-18T16:01:35.811Z,10.00
2022-11-18T16:04:03.582Z,10.20
2022-11-18T16:06:30.768Z,9.70
2022-11-18T16:09:00.306Z,10.40
2022-11-18T16:11:46.968Z,10.30
2022-11-18T16:14:14.569Z,10.07
2022-11-18T16:16:42.937Z,10.53
2022-11-18T16:19:10.991Z,11.10
2022-11-18T16:21:41.107Z,10.57
2022-11-18T16:24:09.189Z,11.10
2022-11-18T16:26:37.100Z,11.20
2022-11-18T16:29:04.966Z,10.43
2022-11-18T16:31:41.316Z,10.60
2022-11-18T16:34:09.806Z,10.13
2022-11-18T16:36:37.559Z,10.67
2022-11-18T16:39:08.969Z,10.07
2022-11-18T16:41:36.265Z,10.03
2022-11-18T16:44:05.981Z,10.57
2022-11-18T16:46:34.316Z,9.37
2022-11-18T16:49:01.908Z,9.43
2022-11-18T16:51:30.203Z,9.27
2022-11-18T16:54:01.073Z,11.30
2022-11-18T16:56:29.402Z,8.93
2022-11-18T16:58:57.596Z,9.40
2022-11-18T17:01:29.174Z,9.27
2022-11-18T17:03:57.522Z,9.17
2022-11-18T17:06:25.398Z,8.83
2022-11-18T17:08:52.744Z,9.40
2022-11-18T17:11:20.203Z,8.13
2022-11-18T17:13:47.380Z,7.87
2022-11-18T17:16:16.217Z,8.60
2022-11-18T17:18:43.892Z,9.30
2022-11-18T17:21:12.306Z,8.73
2022-11-18T17:23:39.702Z,7.30
2022-11-18T17:26:07.396Z,8.03
2022-11-18T17:28:35.663Z,8.03
2022-11-18T17:31:06.869Z,6.50
2022-11-18T17:33:34.254Z,7.03
2022-11-18T17:36:11.451Z,7.00
2022-11-18T17:38:39.978Z,7.07
2022-11-18T17:41:07.402Z,6.00
2022-11-18T17:43:34.718Z,6.70
2022-11-18T17:46:02.448Z,6.63
2022-11-18T17:48:31.770Z,5.83
2022-11-18T17:51:05.364Z,5.80
2022-11-18T17:53:32.719Z,5.83
2022-11-18T17:56:03.883Z,5.43
2022-11-18T17:58:31.741Z,5.53
2022-11-18T18:01:06.614Z,5.90
2022-11-18T18:03:33.713Z,5.70
2022-11-18T18:06:04.744Z,5.20
2022-11-18T18:08:32.420Z,5.87
2022-11-18T18:11:02.928Z,6.90
2022-11-18T18:13:48.735Z,6.43
2022-11-18T18:16:15.779Z,5.20
2022-11-18T18:18:42.878Z,5.33
2022-11-18T18:21:12.843Z,5.93
2022-11-18T18:23:40.258Z,5.60
2022-11-18T18:26:08.126Z,4.80
2022-11-18T18:28:35.317Z,5.03
2022-11-18T18:31:03.607Z,5.00
2022-11-18T18:33:30.732Z,4.80
2022-11-18T18:35:58.449Z,4.53
2022-11-18T18:38:25.719Z,6.07
2022-11-18T18:40:53.111Z,5.57
2022-11-18T18:43:20.584Z,5.13
2022-11-18T18:46:06.371Z,4.93
2022-11-18T18:48:33.945Z,4.70
2022-11-18T18:51:05.168Z,4.80
2022-11-18T18:53:33.245Z,4.80
2022-11-18T18:56:00.615Z,3.90
2022-11-18T18:58:27.926Z,9.37
2022-11-18T19:00:58.251Z,5.27
2022-11-18T19:03:25.573Z,4.80
2022-11-18T19:06:27.293Z,3.63
2022-11-18T19:08:39.647Z,4.10
2022-11-18T19:11:06.770Z,3.93
2022-11-18T19:13:33.836Z,4.10
2022-11-18T19:16:05.604Z,3.80
2022-11-18T19:18:36.167Z,3.27
2022-11-18T19:21:03.240Z,3.60
2022-11-18T19:23:30.265Z,3.60
2022-11-18T19:26:00.894Z,3.30
2022-11-18T19:28:28.303Z,3.63
2022-11-18T19:30:55.352Z,3.30
2022-11-18T19:33:22.417Z,3.10
2022-11-18T19:35:49.485Z,3.37
2022-11-18T19:38:16.552Z,3.43
2022-11-18T19:40:44.527Z,3.20
2022-11-18T19:43:11.719Z,3.33
2022-11-18T19:45:38.769Z,2.97
2022-11-18T19:48:06.032Z,3.13
2022-11-18T19:50:33.167Z,3.10
2022-11-18T19:53:20.212Z,3.00
2022-11-18T19:55:53.403Z,3.17
2022-11-18T19:58:20.485Z,3.27
2022-11-18T20:00:47.508Z,3.43
2022-11-18T20:03:14.665Z,3.30
2022-11-18T20:05:54.038Z,3.37
2022-11-18T20:08:21.999Z,3.47
2022-11-18T20:10:49.670Z,3.50
2022-11-18T20:13:16.800Z,3.87
2022-11-18T20:15:44.541Z,3.67
2022-11-18T20:18:11.899Z,3.67
2022-11-18T20:20:39.007Z,3.37
2022-11-18T20:23:06.134Z,3.57
2022-11-18T20:25:33.253Z,4.07
2022-11-18T20:28:00.301Z,4.10
2022-11-18T20:30:27.380Z,4.10
2022-11-18T20:32:54.488Z,4.50
2022-11-18T20:35:21.541Z,5.00
2022-11-18T20:37:48.671Z,6.20
2022-11-18T20:40:15.827Z,5.03
2022-11-18T20:43:01.616Z,5.60
2022-11-18T20:45:28.689Z,3.70
2022-11-18T20:47:55.785Z,4.10
2022-11-18T20:50:22.871Z,4.00
2022-11-18T20:52:49.936Z,3.63
2022-11-18T20:55:17.192Z,3.13
2022-11-18T20:57:44.252Z,3.40
2022-11-18T21:00:11.650Z,3.87
2022-11-18T21:02:38.699Z,4.23
2022-11-18T21:05:06.034Z,4.27
2022-11-18T21:07:33.733Z,4.13
2022-11-18T21:10:01.758Z,4.53
2022-11-18T21:12:28.886Z,4.03
2022-11-18T21:14:55.965Z,4.10
2022-11-18T21:17:23.038Z,4.70
2022-11-18T21:19:50.204Z,3.97
2022-11-18T21:22:17.489Z,3.80
2022-11-18T21:24:45.167Z,4.07
2022-11-18T21:27:12.739Z,3.97
2022-11-18T21:29:41.412Z,4.03
2022-11-18T21:32:08.478Z,3.63
2022-11-18T21:34:35.532Z,4.20
2022-11-18T21:37:02.728Z,3.73
2022-11-18T21:39:29.916Z,4.07
2022-11-18T21:41:57.616Z,4.23
2022-11-18T21:44:27.587Z,4.00
2022-11-18T21:46:55.005Z,4.30
2022-11-18T21:49:22.891Z,4.43
2022-11-18T21:51:50.207Z,4.10
2022-11-18T21:54:18.400Z,4.30
2022-11-18T21:56:45.621Z,4.30
2022-11-18T21:59:12.918Z,3.93
2022-11-18T22:01:40.021Z,4.50
2022-11-18T22:04:07.640Z,4.53
2022-11-18T22:06:35.062Z,4.73
2022-11-18T22:09:03.602Z,4.40
2022-11-18T22:11:30.862Z,4.53
2022-11-18T22:13:58.083Z,4.00
2022-11-18T22:16:25.926Z,3.73
2022-11-18T22:18:59.270Z,3.83
2022-11-18T22:21:29.871Z,4.00
2022-11-18T22:23:59.290Z,3.87
2022-11-18T22:26:26.401Z,3.80
2022-11-18T22:28:54.438Z,3.90
2022-11-18T22:31:22.696Z,4.00
2022-11-18T22:33:51.168Z,4.30
2022-11-18T22:36:19.033Z,4.13
2022-11-18T22:38:46.275Z,4.10
2022-11-18T22:41:34.556Z,3.53
2022-11-18T22:44:06.943Z,3.97
2022-11-18T22:46:35.082Z,4.23
2022-11-18T22:49:02.180Z,4.30
2022-11-18T22:51:29.422Z,4.27
2022-11-18T22:54:15.771Z,3.40
2022-11-18T22:56:43.352Z,4.20
2022-11-18T22:59:13.515Z,4.30
2022-11-18T23:01:40.921Z,3.90
2022-11-18T23:04:08.014Z,3.93
2022-11-18T23:06:35.145Z,3.90
2022-11-18T23:09:02.325Z,3.83
2022-11-18T23:11:48.533Z,3.90
2022-11-18T23:14:15.607Z,3.50
2022-11-18T23:16:43.694Z,3.70
2022-11-18T23:19:12.230Z,3.97
2022-11-18T23:21:39.369Z,4.13
2022-11-18T23:24:07.633Z,4.07
2022-11-18T23:26:34.772Z,4.07
2022-11-18T23:29:01.909Z,4.07
2022-11-18T23:31:29.295Z,3.60
2022-11-18T23:33:57.236Z,4.23
2022-11-18T23:36:25.043Z,3.53
2022-11-18T23:38:53.026Z,3.83
2022-11-18T23:41:20.472Z,3.60
2022-11-18T23:43:48.731Z,3.93
2022-11-18T23:46:17.493Z,4.13
2022-11-18T23:48:45.352Z,3.83
2022-11-18T23:51:19.097Z,4.13
2022-11-18T23:53:48.168Z,4.10
2022-11-18T23:56:16.294Z,3.70
2022-11-18T23:58:44.475Z,4.27
